Aeroporto :
LOGIN :

Iscrizione | Disclaimer

   EN    FR    IT 

 










Sommario :    VFR   VFR Marginale   IFR   IFR Intensivo   IFR Molto Intensivo
Visibilità : 
Base nubi : 
>= 8 km
>= 3000ft
5 / 8 km
1000 / 3000 ft
1500m / 5 km
500 / 1000 ft
800 / 1500m
200 / 500 ft
< 800m
< 200 ft
Simboli :   Temporali  Nebbia  Neve Forte  Precipitazioni Forti  Vento > 20 kt
SIGMETs :   Varie  Temporali  Ghiacco  Turbolenza  Onda orograficha  Ceneri Vulcaniche






- Altitudine del aeroporto : 27 ft
- Codice IATA : PMI


LEPA - Palma de Mallorca

ULTIMO METAR :
  • 280030Z 28010KT CAVOK 15/10 Q1018 NOSIG

METARs OBSOLETI :
  • 280000Z 27013KT CAVOK 16/11 Q1018 NOSIG
  • 272330Z 26015KT CAVOK 16/11 Q1018 NOSIG
  • 272300Z 26015KT CAVOK 17/11 Q1018 NOSIG
  • 272230Z 22007KT 190V250 CAVOK 15/09 Q1018 NOSIG
  • 272200Z 20009KT 170V230 CAVOK 17/09 Q1018 NOSIG

TAF AMD TAF LEPA
Valido dal 28 a 00 ore il 29 a 00 ore UTC


280019Z 2800/2824 23010KT 9999 FEW040 TX20/2813Z TN09/2806Z
TEMPO 2800/2802 28010KT
BECMG 2801/2803 33015KT
BECMG 2807/2809 08010KT
BECMG 2812/2814 14010KT
BECMG 2818/2820 VRB03KT



MetMap, La meteo Aeronautica in un colpo d'occhio ! - Copyright ORBIFLY Dicembre 2007 - Disclaimer

ORBIFLY MET'MAP TEAM :

Programmazione e sviluppo : Alexandra Zaïnal
Concezione : Baudouin d'Aumeries
Aiuto per la programmazione : Marc-Olivier Méhu
Supporto tecnico e logistico : Manuel Goepfert
Aiuto per la traduzione : Arnaldo La Scala

Contatto : metmap@orbifly.com




FONTI E CREDITI :

   NOAA